sensor_id;sensor_type;location;lat;lon;timestamp;P1;durP1;ratioP1;P2;durP2;ratioP2
10596;SDS011;5346;48.766;8.674;2022-08-19T00:02:03;23.40;;;16.92;;
10596;SDS011;5346;48.766;8.674;2022-08-19T00:04:32;24.60;;;18.38;;
10596;SDS011;5346;48.766;8.674;2022-08-19T00:07:04;23.20;;;18.50;;
10596;SDS011;5346;48.766;8.674;2022-08-19T00:09:38;24.60;;;19.00;;
10596;SDS011;5346;48.766;8.674;2022-08-19T00:12:06;23.88;;;17.40;;
10596;SDS011;5346;48.766;8.674;2022-08-19T00:14:35;22.25;;;18.70;;
10596;SDS011;5346;48.766;8.674;2022-08-19T00:17:08;23.20;;;18.90;;
10596;SDS011;5346;48.766;8.674;2022-08-19T00:19:36;23.02;;;19.17;;
10596;SDS011;5346;48.766;8.674;2022-08-19T00:22:04;25.50;;;19.50;;
10596;SDS011;5346;48.766;8.674;2022-08-19T00:24:43;23.83;;;19.27;;
10596;SDS011;5346;48.766;8.674;2022-08-19T00:27:16;24.00;;;18.80;;
10596;SDS011;5346;48.766;8.674;2022-08-19T00:29:52;25.67;;;19.13;;
10596;SDS011;5346;48.766;8.674;2022-08-19T00:32:20;25.85;;;19.17;;
10596;SDS011;5346;48.766;8.674;2022-08-19T00:34:49;23.92;;;19.27;;
10596;SDS011;5346;48.766;8.674;2022-08-19T00:37:25;22.40;;;19.15;;
10596;SDS011;5346;48.766;8.674;2022-08-19T00:39:53;23.15;;;18.52;;
10596;SDS011;5346;48.766;8.674;2022-08-19T00:42:22;23.23;;;18.17;;
10596;SDS011;5346;48.766;8.674;2022-08-19T00:44:56;22.27;;;18.58;;
10596;SDS011;5346;48.766;8.674;2022-08-19T00:47:23;21.52;;;18.20;;
10596;SDS011;5346;48.766;8.674;2022-08-19T00:49:52;24.95;;;19.98;;
10596;SDS011;5346;48.766;8.674;2022-08-19T00:52:32;24.02;;;19.55;;
10596;SDS011;5346;48.766;8.674;2022-08-19T00:55:03;26.80;;;19.73;;
10596;SDS011;5346;48.766;8.674;2022-08-19T00:57:44;23.40;;;19.85;;
10596;SDS011;5346;48.766;8.674;2022-08-19T01:00:21;24.13;;;19.15;;
10596;SDS011;5346;48.766;8.674;2022-08-19T01:02:57;25.58;;;19.92;;
10596;SDS011;5346;48.766;8.674;2022-08-19T01:05:26;26.30;;;20.15;;
10596;SDS011;5346;48.766;8.674;2022-08-19T01:07:56;22.05;;;19.15;;
10596;SDS011;5346;48.766;8.674;2022-08-19T01:10:35;24.35;;;19.38;;
10596;SDS011;5346;48.766;8.674;2022-08-19T01:13:05;24.40;;;19.65;;
10596;SDS011;5346;48.766;8.674;2022-08-19T01:15:51;25.70;;;20.45;;
10596;SDS011;5346;48.766;8.674;2022-08-19T01:18:27;21.35;;;18.33;;
10596;SDS011;5346;48.766;8.674;2022-08-19T01:21:05;24.00;;;19.52;;
10596;SDS011;5346;48.766;8.674;2022-08-19T01:23:58;20.20;;;17.02;;
10596;SDS011;5346;48.766;8.674;2022-08-19T01:26:37;25.17;;;18.73;;
10596;SDS011;5346;48.766;8.674;2022-08-19T01:29:09;22.77;;;18.48;;
10596;SDS011;5346;48.766;8.674;2022-08-19T01:31:45;20.65;;;18.23;;
10596;SDS011;5346;48.766;8.674;2022-08-19T01:34:19;22.90;;;18.63;;
10596;SDS011;5346;48.766;8.674;2022-08-19T01:37:01;23.98;;;19.38;;
10596;SDS011;5346;48.766;8.674;2022-08-19T01:39:38;27.10;;;20.02;;
10596;SDS011;5346;48.766;8.674;2022-08-19T01:42:13;22.52;;;19.33;;
10596;SDS011;5346;48.766;8.674;2022-08-19T01:44:41;25.05;;;19.23;;
10596;SDS011;5346;48.766;8.674;2022-08-19T01:47:09;22.63;;;19.52;;
10596;SDS011;5346;48.766;8.674;2022-08-19T01:49:43;25.10;;;19.85;;
10596;SDS011;5346;48.766;8.674;2022-08-19T01:52:10;26.25;;;21.05;;
10596;SDS011;5346;48.766;8.674;2022-08-19T01:54:38;21.63;;;18.65;;
10596;SDS011;5346;48.766;8.674;2022-08-19T01:57:12;24.45;;;18.65;;
10596;SDS011;5346;48.766;8.674;2022-08-19T01:59:41;25.95;;;20.90;;
10596;SDS011;5346;48.766;8.674;2022-08-19T02:02:10;26.15;;;19.83;;
10596;SDS011;5346;48.766;8.674;2022-08-19T02:04:43;23.60;;;19.35;;
10596;SDS011;5346;48.766;8.674;2022-08-19T02:07:12;26.98;;;21.85;;
10596;SDS011;5346;48.766;8.674;2022-08-19T02:09:40;25.15;;;20.95;;
10596;SDS011;5346;48.766;8.674;2022-08-19T02:12:14;28.63;;;20.80;;
10596;SDS011;5346;48.766;8.674;2022-08-19T02:14:42;27.83;;;21.20;;
10596;SDS011;5346;48.766;8.674;2022-08-19T02:17:10;31.85;;;21.55;;
10596;SDS011;5346;48.766;8.674;2022-08-19T02:19:44;30.35;;;22.60;;
10596;SDS011;5346;48.766;8.674;2022-08-19T02:22:12;29.52;;;23.58;;
10596;SDS011;5346;48.766;8.674;2022-08-19T02:24:40;26.63;;;22.77;;
10596;SDS011;5346;48.766;8.674;2022-08-19T02:27:14;29.23;;;23.30;;
10596;SDS011;5346;48.766;8.674;2022-08-19T02:29:43;24.42;;;21.52;;
10596;SDS011;5346;48.766;8.674;2022-08-19T02:32:12;29.58;;;23.75;;
10596;SDS011;5346;48.766;8.674;2022-08-19T02:34:52;29.17;;;23.85;;
10596;SDS011;5346;48.766;8.674;2022-08-19T02:37:20;28.67;;;23.80;;
10596;SDS011;5346;48.766;8.674;2022-08-19T02:40:13;29.23;;;23.15;;
10596;SDS011;5346;48.766;8.674;2022-08-19T02:42:41;29.60;;;24.88;;
10596;SDS011;5346;48.766;8.674;2022-08-19T02:45:09;28.02;;;23.92;;
10596;SDS011;5346;48.766;8.674;2022-08-19T02:47:43;33.15;;;26.75;;
10596;SDS011;5346;48.766;8.674;2022-08-19T02:50:11;30.67;;;25.23;;
10596;SDS011;5346;48.766;8.674;2022-08-19T02:52:40;31.50;;;26.63;;
10596;SDS011;5346;48.766;8.674;2022-08-19T02:55:14;30.45;;;24.80;;
10596;SDS011;5346;48.766;8.674;2022-08-19T02:57:42;32.08;;;26.48;;
10596;SDS011;5346;48.766;8.674;2022-08-19T03:00:10;31.58;;;23.85;;
10596;SDS011;5346;48.766;8.674;2022-08-19T03:02:45;35.03;;;25.67;;
10596;SDS011;5346;48.766;8.674;2022-08-19T03:05:13;31.33;;;25.13;;
10596;SDS011;5346;48.766;8.674;2022-08-19T03:07:40;34.53;;;28.17;;
10596;SDS011;5346;48.766;8.674;2022-08-19T03:10:15;30.58;;;25.80;;
10596;SDS011;5346;48.766;8.674;2022-08-19T03:12:42;34.15;;;27.15;;
10596;SDS011;5346;48.766;8.674;2022-08-19T03:15:11;35.17;;;27.52;;
10596;SDS011;5346;48.766;8.674;2022-08-19T03:17:45;35.92;;;27.67;;
10596;SDS011;5346;48.766;8.674;2022-08-19T03:20:18;32.58;;;26.63;;
10596;SDS011;5346;48.766;8.674;2022-08-19T03:22:52;33.22;;;26.38;;
10596;SDS011;5346;48.766;8.674;2022-08-19T03:25:27;32.47;;;25.65;;
10596;SDS011;5346;48.766;8.674;2022-08-19T03:28:02;35.42;;;26.98;;
10596;SDS011;5346;48.766;8.674;2022-08-19T03:30:29;33.28;;;27.42;;
10596;SDS011;5346;48.766;8.674;2022-08-19T03:32:58;32.78;;;25.67;;
10596;SDS011;5346;48.766;8.674;2022-08-19T03:35:40;35.38;;;26.88;;
10596;SDS011;5346;48.766;8.674;2022-08-19T03:38:08;32.42;;;26.48;;
10596;SDS011;5346;48.766;8.674;2022-08-19T03:40:41;34.20;;;28.30;;
10596;SDS011;5346;48.766;8.674;2022-08-19T03:43:10;34.03;;;27.88;;
10596;SDS011;5346;48.766;8.674;2022-08-19T03:45:37;34.50;;;27.15;;
10596;SDS011;5346;48.766;8.674;2022-08-19T03:48:12;34.72;;;26.75;;
10596;SDS011;5346;48.766;8.674;2022-08-19T03:50:39;34.05;;;28.30;;
10596;SDS011;5346;48.766;8.674;2022-08-19T03:53:07;36.75;;;27.85;;
10596;SDS011;5346;48.766;8.674;2022-08-19T03:55:41;38.35;;;27.65;;
10596;SDS011;5346;48.766;8.674;2022-08-19T03:58:09;34.70;;;27.13;;
10596;SDS011;5346;48.766;8.674;2022-08-19T04:00:37;37.65;;;27.95;;
10596;SDS011;5346;48.766;8.674;2022-08-19T04:03:15;34.22;;;26.90;;
10596;SDS011;5346;48.766;8.674;2022-08-19T04:05:45;34.78;;;28.60;;
10596;SDS011;5346;48.766;8.674;2022-08-19T04:08:13;38.05;;;28.00;;
10596;SDS011;5346;48.766;8.674;2022-08-19T04:10:51;35.88;;;28.45;;
10596;SDS011;5346;48.766;8.674;2022-08-19T04:13:19;38.22;;;30.60;;
10596;SDS011;5346;48.766;8.674;2022-08-19T04:15:47;43.67;;;32.15;;
10596;SDS011;5346;48.766;8.674;2022-08-19T04:18:22;37.80;;;29.23;;
10596;SDS011;5346;48.766;8.674;2022-08-19T04:20:50;39.42;;;29.85;;
10596;SDS011;5346;48.766;8.674;2022-08-19T04:23:18;41.08;;;30.98;;
10596;SDS011;5346;48.766;8.674;2022-08-19T04:25:54;37.78;;;29.73;;
10596;SDS011;5346;48.766;8.674;2022-08-19T04:28:23;39.80;;;30.15;;
10596;SDS011;5346;48.766;8.674;2022-08-19T04:30:51;38.55;;;30.90;;
10596;SDS011;5346;48.766;8.674;2022-08-19T04:33:26;40.15;;;29.83;;
10596;SDS011;5346;48.766;8.674;2022-08-19T04:36:08;41.33;;;31.20;;
10596;SDS011;5346;48.766;8.674;2022-08-19T04:38:56;39.28;;;28.92;;
10596;SDS011;5346;48.766;8.674;2022-08-19T04:41:26;37.30;;;28.92;;
10596;SDS011;5346;48.766;8.674;2022-08-19T04:44:19;37.67;;;29.05;;
10596;SDS011;5346;48.766;8.674;2022-08-19T04:46:48;40.92;;;31.33;;
10596;SDS011;5346;48.766;8.674;2022-08-19T04:49:18;39.50;;;30.55;;
10596;SDS011;5346;48.766;8.674;2022-08-19T04:51:55;38.42;;;29.88;;
10596;SDS011;5346;48.766;8.674;2022-08-19T04:54:23;38.08;;;27.80;;
10596;SDS011;5346;48.766;8.674;2022-08-19T04:57:04;39.70;;;29.02;;
10596;SDS011;5346;48.766;8.674;2022-08-19T04:59:41;38.60;;;28.35;;
10596;SDS011;5346;48.766;8.674;2022-08-19T05:02:08;34.53;;;28.02;;
10596;SDS011;5346;48.766;8.674;2022-08-19T05:04:36;42.08;;;30.50;;
10596;SDS011;5346;48.766;8.674;2022-08-19T05:07:12;38.60;;;29.45;;
10596;SDS011;5346;48.766;8.674;2022-08-19T05:09:39;37.80;;;28.90;;
10596;SDS011;5346;48.766;8.674;2022-08-19T05:12:24;43.97;;;29.02;;
10596;SDS011;5346;48.766;8.674;2022-08-19T05:15:01;40.38;;;30.40;;
10596;SDS011;5346;48.766;8.674;2022-08-19T05:17:31;37.97;;;29.40;;
10596;SDS011;5346;48.766;8.674;2022-08-19T05:20:04;39.90;;;30.58;;
10596;SDS011;5346;48.766;8.674;2022-08-19T05:22:58;37.28;;;28.75;;
10596;SDS011;5346;48.766;8.674;2022-08-19T05:25:26;36.08;;;29.52;;
10596;SDS011;5346;48.766;8.674;2022-08-19T05:27:53;36.75;;;30.52;;
10596;SDS011;5346;48.766;8.674;2022-08-19T05:30:28;33.50;;;27.23;;
10596;SDS011;5346;48.766;8.674;2022-08-19T05:33:12;37.45;;;28.50;;
10596;SDS011;5346;48.766;8.674;2022-08-19T05:35:47;34.35;;;28.20;;
10596;SDS011;5346;48.766;8.674;2022-08-19T05:38:22;35.33;;;28.05;;
10596;SDS011;5346;48.766;8.674;2022-08-19T05:40:56;41.90;;;30.65;;
10596;SDS011;5346;48.766;8.674;2022-08-19T05:43:23;35.83;;;28.30;;
10596;SDS011;5346;48.766;8.674;2022-08-19T05:45:51;37.80;;;28.90;;
10596;SDS011;5346;48.766;8.674;2022-08-19T05:48:26;38.78;;;27.42;;
10596;SDS011;5346;48.766;8.674;2022-08-19T05:50:54;36.33;;;28.48;;
10596;SDS011;5346;48.766;8.674;2022-08-19T05:53:21;34.75;;;27.13;;
10596;SDS011;5346;48.766;8.674;2022-08-19T05:55:56;34.33;;;26.88;;
10596;SDS011;5346;48.766;8.674;2022-08-19T05:58:24;35.63;;;27.50;;
10596;SDS011;5346;48.766;8.674;2022-08-19T06:00:53;35.38;;;28.05;;
10596;SDS011;5346;48.766;8.674;2022-08-19T06:03:28;36.75;;;28.25;;
10596;SDS011;5346;48.766;8.674;2022-08-19T06:05:55;34.60;;;27.10;;
10596;SDS011;5346;48.766;8.674;2022-08-19T06:08:26;33.92;;;26.88;;
10596;SDS011;5346;48.766;8.674;2022-08-19T06:11:14;36.67;;;27.40;;
10596;SDS011;5346;48.766;8.674;2022-08-19T06:14:00;34.53;;;25.75;;
10596;SDS011;5346;48.766;8.674;2022-08-19T06:16:42;32.75;;;24.85;;
10596;SDS011;5346;48.766;8.674;2022-08-19T06:19:12;32.53;;;25.90;;
10596;SDS011;5346;48.766;8.674;2022-08-19T06:21:48;29.42;;;25.67;;
10596;SDS011;5346;48.766;8.674;2022-08-19T06:24:22;32.45;;;25.88;;
10596;SDS011;5346;48.766;8.674;2022-08-19T06:26:58;27.52;;;24.42;;
10596;SDS011;5346;48.766;8.674;2022-08-19T06:29:27;28.40;;;23.90;;
10596;SDS011;5346;48.766;8.674;2022-08-19T06:32:00;30.05;;;26.10;;
10596;SDS011;5346;48.766;8.674;2022-08-19T06:34:42;29.70;;;23.83;;
10596;SDS011;5346;48.766;8.674;2022-08-19T06:37:17;25.55;;;22.33;;
10596;SDS011;5346;48.766;8.674;2022-08-19T06:39:51;29.45;;;23.83;;
10596;SDS011;5346;48.766;8.674;2022-08-19T06:42:18;26.98;;;23.77;;
10596;SDS011;5346;48.766;8.674;2022-08-19T06:44:49;25.73;;;22.45;;
10596;SDS011;5346;48.766;8.674;2022-08-19T06:47:24;26.65;;;23.23;;
10596;SDS011;5346;48.766;8.674;2022-08-19T06:49:57;27.88;;;24.02;;
10596;SDS011;5346;48.766;8.674;2022-08-19T06:52:35;28.50;;;23.83;;
10596;SDS011;5346;48.766;8.674;2022-08-19T06:55:04;26.92;;;22.75;;
10596;SDS011;5346;48.766;8.674;2022-08-19T06:57:32;27.20;;;22.58;;
10596;SDS011;5346;48.766;8.674;2022-08-19T07:00:07;26.67;;;22.52;;
10596;SDS011;5346;48.766;8.674;2022-08-19T07:02:40;26.95;;;22.15;;
10596;SDS011;5346;48.766;8.674;2022-08-19T07:05:24;24.55;;;21.55;;
10596;SDS011;5346;48.766;8.674;2022-08-19T07:07:52;24.80;;;22.15;;
10596;SDS011;5346;48.766;8.674;2022-08-19T07:10:30;25.88;;;20.42;;
10596;SDS011;5346;48.766;8.674;2022-08-19T07:13:00;25.23;;;22.30;;
10596;SDS011;5346;48.766;8.674;2022-08-19T07:15:36;26.92;;;20.50;;
10596;SDS011;5346;48.766;8.674;2022-08-19T07:18:05;24.23;;;21.27;;
10596;SDS011;5346;48.766;8.674;2022-08-19T07:20:37;24.35;;;21.73;;
10596;SDS011;5346;48.766;8.674;2022-08-19T07:23:12;23.52;;;20.55;;
10596;SDS011;5346;48.766;8.674;2022-08-19T07:25:42;24.98;;;20.70;;
10596;SDS011;5346;48.766;8.674;2022-08-19T07:28:18;30.30;;;21.42;;
10596;SDS011;5346;48.766;8.674;2022-08-19T07:30:53;24.42;;;21.92;;
10596;SDS011;5346;48.766;8.674;2022-08-19T07:33:20;22.50;;;20.13;;
10596;SDS011;5346;48.766;8.674;2022-08-19T07:36:03;25.67;;;20.48;;
10596;SDS011;5346;48.766;8.674;2022-08-19T07:38:58;23.30;;;19.33;;
10596;SDS011;5346;48.766;8.674;2022-08-19T07:41:32;22.80;;;20.20;;
10596;SDS011;5346;48.766;8.674;2022-08-19T07:44:12;24.88;;;20.55;;
10596;SDS011;5346;48.766;8.674;2022-08-19T07:46:46;22.48;;;19.77;;
10596;SDS011;5346;48.766;8.674;2022-08-19T07:49:25;23.42;;;19.00;;
10596;SDS011;5346;48.766;8.674;2022-08-19T07:51:58;24.02;;;18.90;;
10596;SDS011;5346;48.766;8.674;2022-08-19T07:54:38;25.73;;;20.08;;
10596;SDS011;5346;48.766;8.674;2022-08-19T07:57:07;21.38;;;19.25;;
10596;SDS011;5346;48.766;8.674;2022-08-19T07:59:35;22.23;;;18.30;;
10596;SDS011;5346;48.766;8.674;2022-08-19T08:02:10;20.88;;;18.52;;
10596;SDS011;5346;48.766;8.674;2022-08-19T08:04:38;22.85;;;20.13;;
10596;SDS011;5346;48.766;8.674;2022-08-19T08:07:31;20.70;;;17.05;;
10596;SDS011;5346;48.766;8.674;2022-08-19T08:10:17;18.83;;;16.95;;
10596;SDS011;5346;48.766;8.674;2022-08-19T08:12:52;19.75;;;17.38;;
10596;SDS011;5346;48.766;8.674;2022-08-19T08:15:36;19.90;;;15.82;;
10596;SDS011;5346;48.766;8.674;2022-08-19T08:18:12;18.42;;;16.52;;
10596;SDS011;5346;48.766;8.674;2022-08-19T08:20:41;18.17;;;16.27;;
10596;SDS011;5346;48.766;8.674;2022-08-19T08:23:09;21.55;;;17.17;;
10596;SDS011;5346;48.766;8.674;2022-08-19T08:25:57;19.55;;;17.45;;
10596;SDS011;5346;48.766;8.674;2022-08-19T08:28:26;19.45;;;17.00;;
10596;SDS011;5346;48.766;8.674;2022-08-19T08:30:55;20.52;;;17.73;;
10596;SDS011;5346;48.766;8.674;2022-08-19T08:33:35;17.98;;;15.63;;
10596;SDS011;5346;48.766;8.674;2022-08-19T08:36:17;18.20;;;15.30;;
10596;SDS011;5346;48.766;8.674;2022-08-19T08:38:52;18.98;;;16.30;;
10596;SDS011;5346;48.766;8.674;2022-08-19T08:41:56;19.30;;;15.95;;
10596;SDS011;5346;48.766;8.674;2022-08-19T08:44:49;17.65;;;15.45;;
10596;SDS011;5346;48.766;8.674;2022-08-19T08:47:34;20.50;;;15.73;;
10596;SDS011;5346;48.766;8.674;2022-08-19T08:50:16;17.30;;;15.38;;
10596;SDS011;5346;48.766;8.674;2022-08-19T08:52:53;16.63;;;14.90;;
10596;SDS011;5346;48.766;8.674;2022-08-19T08:55:30;18.02;;;14.82;;
10596;SDS011;5346;48.766;8.674;2022-08-19T08:58:06;17.77;;;15.93;;
10596;SDS011;5346;48.766;8.674;2022-08-19T09:00:49;16.83;;;14.10;;
10596;SDS011;5346;48.766;8.674;2022-08-19T09:03:23;16.85;;;14.68;;
10596;SDS011;5346;48.766;8.674;2022-08-19T09:09:03;17.10;;;13.57;;
10596;SDS011;5346;48.766;8.674;2022-08-19T09:12:09;16.42;;;13.32;;
10596;SDS011;5346;48.766;8.674;2022-08-19T09:14:45;16.15;;;14.52;;
10596;SDS011;5346;48.766;8.674;2022-08-19T09:17:31;16.17;;;14.50;;
10596;SDS011;5346;48.766;8.674;2022-08-19T09:20:18;17.02;;;15.15;;
10596;SDS011;5346;48.766;8.674;2022-08-19T09:22:54;17.80;;;15.40;;
10596;SDS011;5346;48.766;8.674;2022-08-19T09:25:22;17.25;;;15.45;;
10596;SDS011;5346;48.766;8.674;2022-08-19T09:27:55;15.02;;;13.52;;
10596;SDS011;5346;48.766;8.674;2022-08-19T09:30:46;17.65;;;15.55;;
10596;SDS011;5346;48.766;8.674;2022-08-19T09:33:14;16.95;;;15.25;;
10596;SDS011;5346;48.766;8.674;2022-08-19T09:35:49;17.05;;;15.25;;
10596;SDS011;5346;48.766;8.674;2022-08-19T09:38:36;16.63;;;14.13;;
10596;SDS011;5346;48.766;8.674;2022-08-19T09:41:16;19.48;;;13.50;;
10596;SDS011;5346;48.766;8.674;2022-08-19T09:43:50;14.90;;;12.93;;
10596;SDS011;5346;48.766;8.674;2022-08-19T09:46:27;15.65;;;14.05;;
10596;SDS011;5346;48.766;8.674;2022-08-19T09:48:57;14.32;;;12.90;;
10596;SDS011;5346;48.766;8.674;2022-08-19T09:51:33;15.18;;;13.00;;
10596;SDS011;5346;48.766;8.674;2022-08-19T09:54:03;16.27;;;13.27;;
10596;SDS011;5346;48.766;8.674;2022-08-19T09:56:31;13.77;;;11.52;;
10596;SDS011;5346;48.766;8.674;2022-08-19T09:59:07;13.45;;;11.82;;
10596;SDS011;5346;48.766;8.674;2022-08-19T10:01:36;15.20;;;11.45;;
10596;SDS011;5346;48.766;8.674;2022-08-19T10:04:04;13.90;;;11.45;;
10596;SDS011;5346;48.766;8.674;2022-08-19T10:06:45;14.55;;;10.50;;
10596;SDS011;5346;48.766;8.674;2022-08-19T10:09:19;13.80;;;11.05;;
10596;SDS011;5346;48.766;8.674;2022-08-19T10:12:00;12.13;;;9.48;;
10596;SDS011;5346;48.766;8.674;2022-08-19T10:14:31;11.32;;;10.23;;
10596;SDS011;5346;48.766;8.674;2022-08-19T10:17:06;10.55;;;9.48;;
10596;SDS011;5346;48.766;8.674;2022-08-19T10:19:45;10.93;;;9.10;;
10596;SDS011;5346;48.766;8.674;2022-08-19T10:22:21;9.23;;;8.32;;
10596;SDS011;5346;48.766;8.674;2022-08-19T10:24:51;11.52;;;8.95;;
10596;SDS011;5346;48.766;8.674;2022-08-19T10:27:19;9.98;;;8.82;;
10596;SDS011;5346;48.766;8.674;2022-08-19T10:29:57;9.52;;;7.82;;
10596;SDS011;5346;48.766;8.674;2022-08-19T10:32:27;11.70;;;8.57;;
10596;SDS011;5346;48.766;8.674;2022-08-19T10:35:08;13.80;;;9.15;;
10596;SDS011;5346;48.766;8.674;2022-08-19T10:37:52;8.85;;;7.95;;
10596;SDS011;5346;48.766;8.674;2022-08-19T10:40:28;9.43;;;8.43;;
10596;SDS011;5346;48.766;8.674;2022-08-19T10:42:58;9.13;;;8.13;;
10596;SDS011;5346;48.766;8.674;2022-08-19T10:45:26;11.20;;;10.15;;
10596;SDS011;5346;48.766;8.674;2022-08-19T10:48:17;11.23;;;10.07;;
10596;SDS011;5346;48.766;8.674;2022-08-19T10:50:47;14.25;;;9.80;;
10596;SDS011;5346;48.766;8.674;2022-08-19T10:53:48;12.60;;;8.45;;
10596;SDS011;5346;48.766;8.674;2022-08-19T10:56:17;8.93;;;8.00;;
10596;SDS011;5346;48.766;8.674;2022-08-19T10:59:10;12.18;;;9.68;;
10596;SDS011;5346;48.766;8.674;2022-08-19T11:01:41;11.20;;;9.05;;
10596;SDS011;5346;48.766;8.674;2022-08-19T11:04:21;8.77;;;7.88;;
10596;SDS011;5346;48.766;8.674;2022-08-19T11:06:55;8.07;;;7.30;;
10596;SDS011;5346;48.766;8.674;2022-08-19T11:09:31;9.85;;;8.02;;
10596;SDS011;5346;48.766;8.674;2022-08-19T11:12:04;9.05;;;7.70;;
10596;SDS011;5346;48.766;8.674;2022-08-19T11:14:40;8.20;;;7.07;;
10596;SDS011;5346;48.766;8.674;2022-08-19T11:17:07;8.98;;;7.97;;
10596;SDS011;5346;48.766;8.674;2022-08-19T11:19:37;9.15;;;8.27;;
10596;SDS011;5346;48.766;8.674;2022-08-19T11:22:13;8.60;;;7.90;;
10596;SDS011;5346;48.766;8.674;2022-08-19T11:24:44;9.30;;;8.40;;
10596;SDS011;5346;48.766;8.674;2022-08-19T11:27:12;8.18;;;7.38;;
10596;SDS011;5346;48.766;8.674;2022-08-19T11:29:47;9.80;;;8.65;;
10596;SDS011;5346;48.766;8.674;2022-08-19T11:32:15;8.73;;;7.35;;
10596;SDS011;5346;48.766;8.674;2022-08-19T11:34:43;9.70;;;7.53;;
10596;SDS011;5346;48.766;8.674;2022-08-19T11:37:24;8.57;;;7.40;;
10596;SDS011;5346;48.766;8.674;2022-08-19T11:39:53;9.48;;;7.95;;
10596;SDS011;5346;48.766;8.674;2022-08-19T11:42:30;8.88;;;7.40;;
10596;SDS011;5346;48.766;8.674;2022-08-19T11:45:37;9.15;;;6.95;;
10596;SDS011;5346;48.766;8.674;2022-08-19T11:48:12;7.10;;;6.40;;
10596;SDS011;5346;48.766;8.674;2022-08-19T11:50:39;9.70;;;6.85;;
10596;SDS011;5346;48.766;8.674;2022-08-19T11:53:10;7.93;;;7.22;;
10596;SDS011;5346;48.766;8.674;2022-08-19T11:55:44;8.05;;;6.50;;
10596;SDS011;5346;48.766;8.674;2022-08-19T11:58:13;9.30;;;6.78;;
10596;SDS011;5346;48.766;8.674;2022-08-19T12:00:45;7.63;;;6.85;;
10596;SDS011;5346;48.766;8.674;2022-08-19T12:03:19;7.85;;;7.15;;
10596;SDS011;5346;48.766;8.674;2022-08-19T12:05:47;9.35;;;8.00;;
10596;SDS011;5346;48.766;8.674;2022-08-19T12:08:16;8.32;;;7.00;;
10596;SDS011;5346;48.766;8.674;2022-08-19T12:10:51;8.57;;;7.25;;
10596;SDS011;5346;48.766;8.674;2022-08-19T12:13:18;7.20;;;6.60;;
10596;SDS011;5346;48.766;8.674;2022-08-19T12:15:46;8.38;;;7.57;;
10596;SDS011;5346;48.766;8.674;2022-08-19T12:18:24;8.13;;;7.32;;
10596;SDS011;5346;48.766;8.674;2022-08-19T12:20:53;8.52;;;7.68;;
10596;SDS011;5346;48.766;8.674;2022-08-19T12:23:21;8.70;;;7.90;;
10596;SDS011;5346;48.766;8.674;2022-08-19T12:25:56;8.45;;;7.50;;
10596;SDS011;5346;48.766;8.674;2022-08-19T12:28:24;9.50;;;8.60;;
10596;SDS011;5346;48.766;8.674;2022-08-19T12:30:52;9.40;;;8.50;;
10596;SDS011;5346;48.766;8.674;2022-08-19T12:33:26;9.77;;;8.80;;
10596;SDS011;5346;48.766;8.674;2022-08-19T12:35:55;13.10;;;8.93;;
10596;SDS011;5346;48.766;8.674;2022-08-19T12:38:42;8.93;;;8.02;;
10596;SDS011;5346;48.766;8.674;2022-08-19T12:41:11;8.25;;;7.20;;
10596;SDS011;5346;48.766;8.674;2022-08-19T12:43:51;9.63;;;7.95;;
10596;SDS011;5346;48.766;8.674;2022-08-19T12:46:20;9.98;;;7.45;;
10596;SDS011;5346;48.766;8.674;2022-08-19T12:48:51;9.07;;;8.18;;
10596;SDS011;5346;48.766;8.674;2022-08-19T12:51:40;8.90;;;7.90;;
10596;SDS011;5346;48.766;8.674;2022-08-19T12:54:09;9.10;;;8.30;;
10596;SDS011;5346;48.766;8.674;2022-08-19T12:56:44;9.43;;;8.57;;
10596;SDS011;5346;48.766;8.674;2022-08-19T12:59:12;10.07;;;9.07;;
10596;SDS011;5346;48.766;8.674;2022-08-19T13:01:40;8.90;;;8.00;;
10596;SDS011;5346;48.766;8.674;2022-08-19T13:04:14;9.50;;;8.27;;
10596;SDS011;5346;48.766;8.674;2022-08-19T13:06:42;14.00;;;8.77;;
10596;SDS011;5346;48.766;8.674;2022-08-19T13:09:10;9.27;;;8.38;;
10596;SDS011;5346;48.766;8.674;2022-08-19T13:11:44;9.13;;;8.15;;
10596;SDS011;5346;48.766;8.674;2022-08-19T13:14:11;10.93;;;8.93;;
10596;SDS011;5346;48.766;8.674;2022-08-19T13:16:39;9.50;;;8.45;;
10596;SDS011;5346;48.766;8.674;2022-08-19T13:19:14;9.57;;;8.68;;
10596;SDS011;5346;48.766;8.674;2022-08-19T13:21:42;9.10;;;8.20;;
10596;SDS011;5346;48.766;8.674;2022-08-19T13:24:13;9.75;;;8.85;;
10596;SDS011;5346;48.766;8.674;2022-08-19T13:26:53;9.63;;;8.68;;
10596;SDS011;5346;48.766;8.674;2022-08-19T13:29:20;9.60;;;8.80;;
10596;SDS011;5346;48.766;8.674;2022-08-19T13:32:13;9.52;;;8.52;;
10596;SDS011;5346;48.766;8.674;2022-08-19T13:35:08;11.20;;;9.27;;
10596;SDS011;5346;48.766;8.674;2022-08-19T13:37:42;13.85;;;10.05;;
10596;SDS011;5346;48.766;8.674;2022-08-19T13:42:51;9.60;;;8.32;;
10596;SDS011;5346;48.766;8.674;2022-08-19T13:45:21;9.77;;;8.90;;
10596;SDS011;5346;48.766;8.674;2022-08-19T13:47:57;11.63;;;9.50;;
10596;SDS011;5346;48.766;8.674;2022-08-19T13:50:37;11.52;;;9.30;;
10596;SDS011;5346;48.766;8.674;2022-08-19T13:53:28;10.57;;;9.32;;
10596;SDS011;5346;48.766;8.674;2022-08-19T13:55:57;9.10;;;8.30;;
10596;SDS011;5346;48.766;8.674;2022-08-19T13:58:31;9.63;;;8.75;;
10596;SDS011;5346;48.766;8.674;2022-08-19T14:01:07;9.68;;;8.77;;
10596;SDS011;5346;48.766;8.674;2022-08-19T14:03:42;10.32;;;8.15;;
10596;SDS011;5346;48.766;8.674;2022-08-19T14:06:16;9.50;;;8.50;;
10596;SDS011;5346;48.766;8.674;2022-08-19T14:08:51;9.10;;;8.25;;
10596;SDS011;5346;48.766;8.674;2022-08-19T14:11:19;11.65;;;8.40;;
10596;SDS011;5346;48.766;8.674;2022-08-19T14:13:50;8.73;;;7.80;;
10596;SDS011;5346;48.766;8.674;2022-08-19T14:16:24;9.68;;;8.77;;
10596;SDS011;5346;48.766;8.674;2022-08-19T14:18:53;10.80;;;7.80;;
10596;SDS011;5346;48.766;8.674;2022-08-19T14:21:22;9.73;;;8.50;;
10596;SDS011;5346;48.766;8.674;2022-08-19T14:23:58;9.00;;;8.10;;
10596;SDS011;5346;48.766;8.674;2022-08-19T14:26:26;8.82;;;7.97;;
10596;SDS011;5346;48.766;8.674;2022-08-19T14:28:54;8.50;;;7.80;;
10596;SDS011;5346;48.766;8.674;2022-08-19T14:31:31;9.45;;;7.57;;
10596;SDS011;5346;48.766;8.674;2022-08-19T14:33:59;8.25;;;7.55;;
10596;SDS011;5346;48.766;8.674;2022-08-19T14:36:27;8.40;;;7.60;;
10596;SDS011;5346;48.766;8.674;2022-08-19T14:39:04;8.50;;;7.15;;
10596;SDS011;5346;48.766;8.674;2022-08-19T14:41:32;8.52;;;7.18;;
10596;SDS011;5346;48.766;8.674;2022-08-19T14:44:00;7.38;;;6.78;;
10596;SDS011;5346;48.766;8.674;2022-08-19T14:46:34;7.57;;;6.35;;
10596;SDS011;5346;48.766;8.674;2022-08-19T14:49:02;7.57;;;6.80;;
10596;SDS011;5346;48.766;8.674;2022-08-19T14:51:35;7.40;;;6.70;;
10596;SDS011;5346;48.766;8.674;2022-08-19T14:54:09;8.07;;;6.95;;
10596;SDS011;5346;48.766;8.674;2022-08-19T14:56:36;7.43;;;6.72;;
10596;SDS011;5346;48.766;8.674;2022-08-19T14:59:06;7.57;;;6.85;;
10596;SDS011;5346;48.766;8.674;2022-08-19T15:01:40;7.00;;;6.35;;
10596;SDS011;5346;48.766;8.674;2022-08-19T15:04:08;6.75;;;6.18;;
10596;SDS011;5346;48.766;8.674;2022-08-19T15:06:36;6.93;;;6.15;;
10596;SDS011;5346;48.766;8.674;2022-08-19T15:09:11;6.38;;;5.88;;
10596;SDS011;5346;48.766;8.674;2022-08-19T15:11:39;6.35;;;5.75;;
10596;SDS011;5346;48.766;8.674;2022-08-19T15:14:06;6.53;;;5.45;;
10596;SDS011;5346;48.766;8.674;2022-08-19T15:16:43;5.90;;;5.40;;
10596;SDS011;5346;48.766;8.674;2022-08-19T15:19:10;5.88;;;5.38;;
10596;SDS011;5346;48.766;8.674;2022-08-19T15:21:39;5.65;;;5.15;;
10596;SDS011;5346;48.766;8.674;2022-08-19T15:24:13;6.07;;;5.40;;
10596;SDS011;5346;48.766;8.674;2022-08-19T15:26:41;6.28;;;5.32;;
10596;SDS011;5346;48.766;8.674;2022-08-19T15:29:09;10.25;;;4.93;;